Time;durP1;ratioP1;P1;durP2;ratioP2;P2;SDS_P1;SDS_P2;PMS_P1;PMS_P2;Temp;Humidity;BMP_temperature;BMP_pressure;BME280_temperature;BME280_humidity;BME280_pressure;Samples;Min_cycle;Max_cycle;Signal;HPM_P1;HPM_P2
2021/04/12 00:00:25;;;;;;;7.63;2.50;;;1.30;89.40;;;;;;5015238;28;20037;-48
2021/04/12 00:03:12;;;;;;;5.95;2.72;;;1.40;89.50;;;;;;5026079;28;20053;-47
2021/04/12 00:06:07;;;;;;;9.02;2.80;;;1.40;89.60;;;;;;5023862;28;20057;-47
2021/04/12 00:08:53;;;;;;;11.25;2.95;;;1.40;89.60;;;;;;5019799;28;20053;-47
2021/04/12 00:11:40;;;;;;;5.20;2.70;;;1.50;89.60;;;;;;5017427;28;20069;-48
2021/04/12 00:14:09;;;;;;;9.68;3.10;;;1.50;89.60;;;;;;5017370;28;20029;-47
2021/04/12 00:16:40;;;;;;;10.07;3.00;;;1.50;89.60;;;;;;5029305;28;20045;-47
2021/04/12 00:19:17;;;;;;;11.13;3.20;;;1.50;89.50;;;;;;5019169;28;20037;-47
2021/04/12 00:21:53;;;;;;;8.30;3.00;;;1.50;89.30;;;;;;5018867;28;20037;-49
2021/04/12 00:24:28;;;;;;;7.72;2.50;;;1.50;89.70;;;;;;5028283;28;20517;-47
2021/04/12 00:27:11;;;;;;;5.60;2.92;;;1.50;89.50;;;;;;5030736;28;20065;-47
2021/04/12 00:29:58;;;;;;;7.63;2.95;;;1.50;89.70;;;;;;5015203;28;20096;-47
2021/04/12 00:32:33;;;;;;;9.93;3.20;;;1.50;89.80;;;;;;5019597;28;20064;-48
2021/04/12 00:35:22;;;;;;;8.88;2.78;;;1.50;89.90;;;;;;5032597;28;20049;-46
2021/04/12 00:38:06;;;;;;;7.40;2.92;;;1.50;89.90;;;;;;5031068;28;20410;-47
2021/04/12 00:40:56;;;;;;;7.78;2.75;;;1.60;90.00;;;;;;5027913;28;20431;-48
2021/04/12 00:43:52;;;;;;;6.00;3.00;;;1.60;89.90;;;;;;5015087;28;20115;-47
2021/04/12 00:46:45;;;;;;;9.40;3.20;;;1.60;90.00;;;;;;5018474;28;20406;-47
2021/04/12 00:49:36;;;;;;;7.20;2.97;;;1.60;90.00;;;;;;5031144;28;20034;-47
2021/04/12 00:52:17;;;;;;;6.43;2.60;;;1.50;90.00;;;;;;5027425;28;20595;-46
2021/04/12 00:55:12;;;;;;;10.80;3.30;;;1.50;90.00;;;;;;5033071;28;20120;-46
2021/04/12 00:57:44;;;;;;;5.00;2.95;;;1.50;90.00;;;;;;5019037;28;20053;-47
2021/04/12 01:00:10;;;;;;;8.70;3.83;;;1.50;90.00;;;;;;5027973;28;20048;-47
2021/04/12 01:02:57;;;;;;;6.70;2.97;;;1.50;90.00;;;;;;5019785;28;20138;-46
2021/04/12 01:06:05;;;;;;;6.80;2.72;;;1.50;90.00;;;;;;5024317;28;20114;-46
2021/04/12 01:08:55;;;;;;;7.72;3.05;;;1.50;90.20;;;;;;5027156;28;20136;-47
2021/04/12 01:11:29;;;;;;;6.28;3.10;;;1.50;90.20;;;;;;5020594;28;20087;-48
2021/04/12 01:14:26;;;;;;;7.38;2.88;;;1.50;90.00;;;;;;5031905;28;20039;-47
2021/04/12 01:17:20;;;;;;;10.48;3.20;;;1.40;90.00;;;;;;5028939;28;20147;-47
2021/04/12 01:20:07;;;;;;;5.63;2.80;;;1.50;90.10;;;;;;5028429;28;20037;-47
2021/04/12 01:23:00;;;;;;;5.75;2.10;;;1.40;89.90;;;;;;5029072;28;20077;-47
2021/04/12 01:25:54;;;;;;;7.97;2.35;;;1.40;90.00;;;;;;5022962;28;20375;-47
2021/04/12 01:28:52;;;;;;;12.90;3.22;;;1.30;90.00;;;;;;5019530;28;20061;-50
2021/04/12 01:31:37;;;;;;;6.85;3.03;;;1.30;90.10;;;;;;5032549;28;20034;-47
2021/04/12 01:34:14;;;;;;;5.47;2.80;;;1.20;90.10;;;;;;5034195;28;20033;-47
2021/04/12 01:36:49;;;;;;;8.38;2.90;;;1.10;90.10;;;;;;5043744;28;20120;-47
2021/04/12 01:39:40;;;;;;;12.10;3.10;;;1.00;90.20;;;;;;5026794;28;20077;-47
2021/04/12 01:42:25;;;;;;;7.38;2.70;;;1.00;90.30;;;;;;5033540;28;20060;-47
2021/04/12 01:45:02;;;;;;;8.02;2.92;;;1.10;90.50;;;;;;5034385;28;20115;-47
2021/04/12 01:47:44;;;;;;;7.60;2.92;;;1.10;90.40;;;;;;5026855;28;20045;-48
2021/04/12 01:50:41;;;;;;;5.68;2.58;;;1.10;90.50;;;;;;5029987;28;20072;-47
2021/04/12 01:53:28;;;;;;;4.78;2.45;;;1.10;90.50;;;;;;5026752;28;20065;-47
2021/04/12 01:56:25;;;;;;;6.03;2.65;;;1.10;90.30;;;;;;5038885;28;20429;-47
2021/04/12 01:59:20;;;;;;;5.97;2.55;;;1.10;90.20;;;;;;5017224;28;20168;-46
2021/04/12 02:01:52;;;;;;;8.23;3.15;;;1.00;90.30;;;;;;5025053;28;20478;-47
2021/04/12 02:04:35;;;;;;;4.07;2.60;;;1.00;90.30;;;;;;5020011;28;20038;-47
2021/04/12 02:07:22;;;;;;;4.70;2.58;;;1.00;90.30;;;;;;5031740;28;20080;-47
2021/04/12 02:10:02;;;;;;;8.77;3.00;;;0.90;90.40;;;;;;5020170;28;20454;-47
2021/04/12 02:12:43;;;;;;;4.40;2.70;;;0.90;90.50;;;;;;5027970;28;20459;-47
2021/04/12 02:15:33;;;;;;;7.70;2.90;;;0.90;90.50;;;;;;5034414;28;20399;-47
2021/04/12 02:18:11;;;;;;;6.13;3.20;;;0.80;90.60;;;;;;5023718;28;20046;-47
2021/04/12 02:21:07;;;;;;;7.13;3.30;;;0.80;90.50;;;;;;5029925;28;20052;-47
2021/04/12 02:24:15;;;;;;;8.13;2.80;;;0.90;90.70;;;;;;5033347;28;20040;-48
2021/04/12 02:26:53;;;;;;;6.95;2.70;;;1.00;90.70;;;;;;5028346;28;20117;-47
2021/04/12 02:29:34;;;;;;;6.43;2.78;;;1.00;90.70;;;;;;5029135;28;20048;-47
2021/04/12 02:32:09;;;;;;;8.30;2.83;;;1.10;90.60;;;;;;5023995;28;20088;-47
2021/04/12 02:34:44;;;;;;;6.25;2.72;;;1.10;90.60;;;;;;5029339;28;20179;-47
2021/04/12 02:37:41;;;;;;;8.23;2.75;;;1.20;90.60;;;;;;5028054;28;20092;-48
2021/04/12 02:40:33;;;;;;;4.72;2.63;;;1.20;90.50;;;;;;5024335;28;20037;-46
2021/04/12 02:43:04;;;;;;;9.37;3.03;;;1.20;90.50;;;;;;5028070;28;20041;-46
2021/04/12 02:45:59;;;;;;;5.28;2.45;;;1.20;90.60;;;;;;5030359;28;20065;-47
2021/04/12 02:48:40;;;;;;;8.52;2.78;;;1.20;90.50;;;;;;5015603;28;20053;-47
2021/04/12 02:51:54;;;;;;;5.43;2.70;;;1.20;90.60;;;;;;5026897;28;20041;-47
2021/04/12 02:54:22;;;;;;;;;;;1.10;90.50;;;;;;5012999;28;20048;-47
2021/04/12 02:57:02;;;;;;;8.43;2.75;;;1.00;90.40;;;;;;5026744;28;19917;-47
2021/04/12 02:59:33;;;;;;;5.57;2.80;;;1.00;90.50;;;;;;5022086;28;20048;-48
2021/04/12 03:02:11;;;;;;;8.73;2.28;;;1.00;90.70;;;;;;5028330;28;20033;-48
2021/04/12 03:05:14;;;;;;;6.78;2.55;;;1.00;90.70;;;;;;5016481;28;20096;-46
2021/04/12 03:08:24;;;;;;;6.30;2.65;;;1.00;90.80;;;;;;5025968;28;20034;-46
2021/04/12 03:11:38;;;;;;;6.78;3.03;;;0.90;90.70;;;;;;5026539;28;20045;-47
2021/04/12 03:14:33;;;;;;;5.90;3.00;;;0.80;90.50;;;;;;5022713;28;20088;-47
2021/04/12 03:17:35;;;;;;;7.43;2.90;;;0.80;90.50;;;;;;5026029;28;20045;-47
2021/04/12 03:20:22;;;;;;;4.97;2.70;;;0.70;90.50;;;;;;5031355;28;20073;-47
2021/04/12 03:23:36;;;;;;;4.90;2.72;;;0.70;90.60;;;;;;5030862;28;20124;-47
2021/04/12 03:26:31;;;;;;;7.18;2.70;;;0.60;90.70;;;;;;5024066;28;20046;-46
2021/04/12 03:29:09;;;;;;;5.82;2.47;;;0.70;90.90;;;;;;5022791;28;20042;-47
2021/04/12 03:32:02;;;;;;;6.57;2.60;;;0.70;90.90;;;;;;5025543;28;20136;-47
2021/04/12 03:34:40;;;;;;;10.07;3.10;;;0.80;90.90;;;;;;5032029;28;20041;-47
2021/04/12 03:37:37;;;;;;;7.88;2.58;;;0.80;91.00;;;;;;5030999;28;20048;-46
2021/04/12 03:40:22;;;;;;;5.38;2.50;;;0.90;91.00;;;;;;5031392;28;20528;-47
2021/04/12 03:43:13;;;;;;;7.75;2.72;;;0.90;91.10;;;;;;5022816;28;20046;-47
2021/04/12 03:45:59;;;;;;;4.40;2.70;;;0.90;91.10;;;;;;5023517;28;20104;-49
2021/04/12 03:48:33;;;;;;;5.57;2.30;;;0.90;91.00;;;;;;5022720;28;20049;-47
2021/04/12 03:51:13;;;;;;;4.40;2.60;;;0.90;91.00;;;;;;5028233;28;20045;-47
2021/04/12 03:54:05;;;;;;;4.55;2.47;;;0.90;91.00;;;;;;5045964;28;20045;-47
2021/04/12 03:57:06;;;;;;;7.45;2.50;;;0.90;91.20;;;;;;5013633;28;20049;-47
2021/04/12 04:00:11;;;;;;;6.10;3.00;;;1.00;91.10;;;;;;5022709;28;20307;-47
2021/04/12 04:03:12;;;;;;;6.38;2.50;;;0.90;91.10;;;;;;5025048;28;20417;-49
2021/04/12 04:05:48;;;;;;;5.85;2.42;;;1.00;91.10;;;;;;5025197;28;20506;-47
2021/04/12 04:08:14;;;;;;;9.20;2.70;;;0.90;91.00;;;;;;5041099;28;20060;-47
2021/04/12 04:11:12;;;;;;;4.78;2.53;;;1.00;91.00;;;;;;5013227;28;20042;-47
2021/04/12 04:14:00;;;;;;;4.55;2.33;;;1.00;91.20;;;;;;5028258;28;20068;-47
2021/04/12 04:16:53;;;;;;;7.53;2.80;;;1.00;91.10;;;;;;5031059;28;20520;-47
2021/04/12 04:19:54;;;;;;;7.78;2.80;;;1.00;91.10;;;;;;5025146;28;20047;-46
2021/04/12 04:22:45;;;;;;;8.20;2.53;;;1.00;91.20;;;;;;5024896;28;20053;-47
2021/04/12 04:25:16;;;;;;;5.43;2.65;;;1.00;91.20;;;;;;5019813;28;20045;-47
2021/04/12 04:28:02;;;;;;;7.55;2.80;;;1.00;91.20;;;;;;5044987;28;20037;-47
2021/04/12 04:30:49;;;;;;;5.82;2.70;;;1.00;91.20;;;;;;5022821;28;20052;-47
2021/04/12 04:33:38;;;;;;;6.90;2.80;;;1.00;91.20;;;;;;5022163;28;20037;-47
2021/04/12 04:36:29;;;;;;;7.80;2.80;;;1.00;91.40;;;;;;5028156;28;20121;-47
2021/04/12 04:39:29;;;;;;;7.68;3.13;;;1.00;91.30;;;;;;5025667;28;20505;-47
2021/04/12 04:42:16;;;;;;;10.52;3.10;;;1.00;91.40;;;;;;5030338;28;20045;-47
2021/04/12 04:45:01;;;;;;;7.90;3.25;;;1.00;91.40;;;;;;5030802;28;20042;-50
2021/04/12 04:48:01;;;;;;;6.65;3.00;;;1.10;91.40;;;;;;5023377;28;20045;-48
2021/04/12 04:50:37;;;;;;;5.72;2.90;;;1.10;91.40;;;;;;5028943;28;20516;-46
2021/04/12 04:53:27;;;;;;;7.47;2.92;;;1.10;91.40;;;;;;5030377;28;20509;-47
2021/04/12 04:56:21;;;;;;;6.72;2.83;;;1.10;91.40;;;;;;5027869;28;20418;-47
2021/04/12 04:58:59;;;;;;;7.05;2.88;;;1.10;91.50;;;;;;5013213;28;20074;-46
2021/04/12 05:01:42;;;;;;;6.20;2.72;;;1.00;91.40;;;;;;5030353;28;20077;-48
2021/04/12 05:04:39;;;;;;;10.38;2.72;;;1.00;91.40;;;;;;5029909;28;20355;-46
2021/04/12 05:07:23;;;;;;;8.18;2.90;;;1.00;91.40;;;;;;5029732;28;20053;-48
2021/04/12 05:10:04;;;;;;;6.25;3.03;;;1.00;91.30;;;;;;5030041;28;20121;-47
2021/04/12 05:12:54;;;;;;;6.35;3.28;;;1.00;91.40;;;;;;5029262;28;20038;-46
2021/04/12 05:15:43;;;;;;;9.15;3.22;;;1.00;91.40;;;;;;5029749;28;20498;-46
2021/04/12 05:18:38;;;;;;;7.63;2.92;;;1.00;91.30;;;;;;5023531;28;20125;-48
2021/04/12 05:21:27;;;;;;;7.30;2.90;;;1.00;91.20;;;;;;5025687;28;20084;-47
2021/04/12 05:24:24;;;;;;;10.77;3.13;;;1.00;91.20;;;;;;5023861;28;20064;-49
2021/04/12 05:27:08;;;;;;;7.45;3.28;;;0.90;91.50;;;;;;5025343;28;20124;-47
2021/04/12 05:30:22;;;;;;;6.60;3.10;;;1.00;91.40;;;;;;5027056;28;20064;-47
2021/04/12 05:33:17;;;;;;;5.18;2.95;;;1.00;91.40;;;;;;5020810;28;20520;-47
2021/04/12 05:35:54;;;;;;;7.45;3.33;;;1.00;91.40;;;;;;5025499;28;20461;-47
2021/04/12 05:38:34;;;;;;;5.82;3.03;;;1.10;91.40;;;;;;5021649;28;20041;-47
2021/04/12 05:41:17;;;;;;;6.35;2.80;;;1.20;91.40;;;;;;5023054;28;20034;-49
2021/04/12 05:43:53;;;;;;;;;;;1.40;91.20;;;;;;5019797;28;20041;-47
2021/04/12 05:46:53;;;;;;;8.30;2.85;;;1.60;91.20;;;;;;5023098;28;20297;-48
2021/04/12 05:49:53;;;;;;;8.18;2.50;;;1.90;90.70;;;;;;5021616;28;20064;-48
2021/04/12 05:52:32;;;;;;;6.20;2.92;;;2.40;89.80;;;;;;5026616;28;20033;-48
2021/04/12 05:55:09;;;;;;;7.78;2.83;;;2.80;88.10;;;;;;5019707;28;20041;-48
2021/04/12 05:57:54;;;;;;;9.65;2.40;;;3.00;86.70;;;;;;5012389;28;20042;-48
2021/04/12 06:00:47;;;;;;;8.68;2.83;;;3.30;86.00;;;;;;5020899;28;20036;-48
2021/04/12 06:03:51;;;;;;;5.50;2.55;;;3.50;84.70;;;;;;5016320;28;20029;-48
2021/04/12 06:06:42;;;;;;;5.20;2.63;;;3.50;84.90;;;;;;5013744;28;20049;-48
2021/04/12 06:09:20;;;;;;;9.73;2.70;;;3.50;84.20;;;;;;5014557;28;20045;-49
2021/04/12 06:12:24;;;;;;;4.22;2.50;;;3.40;84.50;;;;;;5013062;28;20100;-50
2021/04/12 06:15:01;;;;;;;;;;;3.70;84.70;;;;;;5019283;28;20065;-48
2021/04/12 06:17:32;;;;;;;6.75;2.60;;;4.30;83.30;;;;;;5022614;28;19921;-47
2021/04/12 06:20:04;;;;;;;7.25;2.72;;;4.60;81.20;;;;;;5014179;28;20534;-49
2021/04/12 06:22:58;;;;;;;7.77;2.67;;;4.40;81.40;;;;;;5021503;28;20079;-49
2021/04/12 06:25:46;;;;;;;4.70;2.33;;;4.30;82.70;;;;;;5017592;28;20309;-47
2021/04/12 06:28:43;;;;;;;7.32;2.78;;;4.20;83.60;;;;;;5019384;28;20065;-48
2021/04/12 06:31:37;;;;;;;8.32;2.40;;;4.40;83.80;;;;;;5023303;28;20411;-48
2021/04/12 06:34:33;;;;;;;7.20;2.42;;;4.60;83.90;;;;;;5018470;28;20041;-49
2021/04/12 06:36:59;;;;;;;6.85;2.53;;;4.80;83.50;;;;;;5015606;28;20060;-49
2021/04/12 06:39:59;;;;;;;6.45;2.20;;;4.80;83.90;;;;;;5037652;28;20041;-47
2021/04/12 06:42:40;;;;;;;6.90;2.78;;;4.70;84.20;;;;;;5018827;28;20040;-47
2021/04/12 06:45:35;;;;;;;6.13;2.33;;;4.70;84.80;;;;;;5036125;28;20065;-49
2021/04/12 06:48:20;;;;;;;9.38;2.70;;;4.70;84.50;;;;;;5017060;28;20141;-50
2021/04/12 06:51:12;;;;;;;6.35;2.90;;;4.60;85.00;;;;;;5018500;28;20478;-48
2021/04/12 06:53:43;;;;;;;8.80;2.90;;;4.60;85.40;;;;;;5015371;28;20045;-49
2021/04/12 06:57:05;;;;;;;6.82;2.60;;;4.60;85.70;;;;;;5030534;28;20042;-48
2021/04/12 06:59:37;;;;;;;8.05;3.10;;;4.70;85.90;;;;;;5022509;28;20053;-48
2021/04/12 07:02:25;;;;;;;8.35;2.90;;;4.80;85.80;;;;;;5026844;28;20053;-49
2021/04/12 07:05:16;;;;;;;6.32;2.78;;;4.90;85.50;;;;;;5023937;28;20176;-48
2021/04/12 07:08:03;;;;;;;7.40;2.78;;;4.90;85.40;;;;;;5024885;28;20045;-47
2021/04/12 07:10:35;;;;;;;7.28;3.22;;;5.00;85.70;;;;;;5022513;28;20496;-48
2021/04/12 07:13:38;;;;;;;5.82;2.72;;;5.00;85.60;;;;;;5027962;28;20041;-48
2021/04/12 07:16:48;;;;;;;5.95;2.72;;;5.10;85.60;;;;;;5024276;28;20057;-49
2021/04/12 07:19:44;;;;;;;5.25;2.10;;;5.20;85.40;;;;;;5025565;28;20049;-49
2021/04/12 07:22:48;;;;;;;8.15;2.70;;;5.30;84.80;;;;;;5046268;28;20560;-48
2021/04/12 07:25:13;;;;;;;;;;;5.40;85.00;;;;;;5027808;28;20120;-49
2021/04/12 07:28:19;;;;;;;5.93;1.98;;;5.40;83.40;;;;;;5028024;28;20030;-49
2021/04/12 07:31:26;;;;;;;8.75;2.15;;;5.30;82.90;;;;;;5024216;28;20112;-47
2021/04/12 07:34:36;;;;;;;4.40;2.28;;;5.30;83.80;;;;;;5023388;28;20045;-47
2021/04/12 07:37:18;;;;;;;6.13;2.03;;;5.40;84.50;;;;;;5035947;28;20133;-47
2021/04/12 07:40:21;;;;;;;7.70;2.50;;;5.60;84.40;;;;;;5023880;28;20034;-46
2021/04/12 07:42:46;;;;;;;;;;;5.70;83.40;;;;;;5026284;28;20036;-47
2021/04/12 07:45:56;;;;;;;6.55;2.13;;;5.90;82.60;;;;;;5031802;28;19917;-49
2021/04/12 07:48:59;;;;;;;6.32;2.08;;;6.00;83.80;;;;;;5023856;28;20045;-48
2021/04/12 07:52:02;;;;;;;7.68;1.75;;;6.10;82.00;;;;;;5029534;28;20049;-49
2021/04/12 07:55:06;;;;;;;9.48;2.20;;;6.30;80.40;;;;;;5030267;28;20104;-47
2021/04/12 07:58:09;;;;;;;8.82;1.65;;;6.30;78.60;;;;;;5024941;28;20041;-48
2021/04/12 08:01:06;;;;;;;5.47;1.30;;;6.40;77.00;;;;;;5022320;28;20049;-48
2021/04/12 08:04:04;;;;;;;4.25;1.35;;;6.40;73.40;;;;;;5029174;28;20046;-48
2021/04/12 08:06:57;;;;;;;7.35;1.33;;;6.50;71.10;;;;;;5027182;28;20042;-48
2021/04/12 08:09:58;;;;;;;5.85;1.00;;;6.60;70.80;;;;;;5023860;28;20493;-48
2021/04/12 08:12:44;;;;;;;9.48;1.15;;;6.60;70.40;;;;;;4992409;28;20498;-47
2021/04/12 08:15:53;;;;;;;7.30;1.15;;;6.70;67.90;;;;;;5018272;28;20103;-48
2021/04/12 08:18:47;;;;;;;9.98;2.15;;;6.80;67.50;;;;;;5027948;28;20042;-48
2021/04/12 08:21:35;;;;;;;8.07;1.70;;;6.90;67.90;;;;;;5025937;28;20049;-47
2021/04/12 08:24:28;;;;;;;5.47;1.50;;;7.00;69.30;;;;;;5023324;28;20124;-48
2021/04/12 08:27:12;;;;;;;;;;;7.20;68.70;;;;;;5025072;28;20041;-47
2021/04/12 08:30:01;;;;;;;4.95;1.20;;;7.30;65.80;;;;;;5038076;28;19970;-49
2021/04/12 08:32:49;;;;;;;2.55;1.00;;;7.30;68.00;;;;;;5026507;28;20578;-49
2021/04/12 08:35:43;;;;;;;6.15;1.38;;;7.30;68.10;;;;;;5018412;28;20091;-47
2021/04/12 08:38:41;;;;;;;6.68;0.95;;;7.40;67.10;;;;;;5010229;28;20493;-47
2021/04/12 08:41:40;;;;;;;4.10;0.88;;;7.50;67.30;;;;;;5018895;28;20052;-47
2021/04/12 08:44:42;;;;;;;8.18;1.23;;;7.50;63.30;;;;;;5021029;28;20140;-47
2021/04/12 08:47:35;;;;;;;3.67;0.93;;;7.50;61.50;;;;;;5017694;28;20506;-49
2021/04/12 08:50:16;;;;;;;5.13;1.05;;;7.60;64.40;;;;;;5026784;28;20065;-48
2021/04/12 08:53:20;;;;;;;2.75;0.95;;;7.50;62.50;;;;;;5029244;28;20128;-48
2021/04/12 08:56:07;;;;;;;4.20;0.73;;;7.60;60.30;;;;;;5038970;28;20105;-48
2021/04/12 08:59:12;;;;;;;5.53;1.50;;;7.50;63.00;;;;;;5024304;28;20038;-47
2021/04/12 09:01:41;;;;;;;3.75;1.10;;;7.60;68.30;;;;;;5030044;28;20041;-47
2021/04/12 09:04:16;;;;;;;6.10;1.05;;;7.50;68.90;;;;;;5027814;28;20405;-47
2021/04/12 09:07:00;;;;;;;5.40;0.90;;;7.30;66.20;;;;;;5026345;28;20654;-48
2021/04/12 09:09:54;;;;;;;7.97;1.10;;;6.90;66.80;;;;;;5026290;28;20494;-48
2021/04/12 09:12:31;;;;;;;4.53;1.02;;;6.60;68.00;;;;;;5024733;28;20041;-47
2021/04/12 09:15:16;;;;;;;5.60;0.95;;;6.50;69.10;;;;;;5022033;28;20060;-48
2021/04/12 09:18:03;;;;;;;4.10;1.30;;;6.70;71.50;;;;;;5026956;28;20512;-47
2021/04/12 09:20:53;;;;;;;7.88;1.00;;;7.00;68.70;;;;;;5023752;28;20992;-47
2021/04/12 09:23:18;;;;;;;3.63;0.90;;;7.10;65.20;;;;;;5034896;28;20083;-48
2021/04/12 09:26:08;;;;;;;2.63;0.80;;;7.20;65.90;;;;;;5029095;28;20041;-48
2021/04/12 09:28:40;;;;;;;6.53;1.00;;;7.20;65.80;;;;;;5029002;28;20042;-48
2021/04/12 09:31:20;;;;;;;3.90;1.10;;;7.20;66.50;;;;;;5022224;28;20103;-48
2021/04/12 09:34:04;;;;;;;3.63;0.90;;;7.20;65.40;;;;;;5024481;28;20116;-48
2021/04/12 09:37:03;;;;;;;3.55;0.80;;;7.20;64.20;;;;;;5029354;28;20119;-49
2021/04/12 09:39:40;;;;;;;5.03;0.90;;;7.10;64.30;;;;;;5027927;28;20049;-48
2021/04/12 09:42:09;;;;;;;5.15;1.23;;;7.00;63.80;;;;;;5032783;28;20086;-48
2021/04/12 09:44:59;;;;;;;4.60;1.20;;;6.80;63.60;;;;;;5025016;28;20072;-47
2021/04/12 09:47:25;;;;;;;4.18;1.02;;;6.80;65.30;;;;;;5029224;28;20057;-48
2021/04/12 09:50:18;;;;;;;4.32;1.00;;;6.80;64.70;;;;;;5036349;28;20041;-48
2021/04/12 09:53:06;;;;;;;1.25;0.82;;;6.70;65.70;;;;;;5035454;28;20390;-48
2021/04/12 09:56:05;;;;;;;3.03;1.13;;;6.70;65.30;;;;;;5034255;28;20211;-48
2021/04/12 09:58:39;;;;;;;1.92;0.90;;;6.60;64.70;;;;;;5033665;28;20052;-48
2021/04/12 10:01:12;;;;;;;3.17;0.70;;;6.50;64.60;;;;;;5029841;28;20108;-48
2021/04/12 10:03:52;;;;;;;;;;;6.70;66.70;;;;;;5034813;28;20045;-48
2021/04/12 10:06:35;;;;;;;4.15;0.98;;;6.90;67.00;;;;;;5027134;28;19948;-48
2021/04/12 10:09:31;;;;;;;3.10;0.95;;;7.10;62.80;;;;;;5028862;28;20152;-48
2021/04/12 10:12:41;;;;;;;2.70;1.02;;;7.40;61.10;;;;;;5030397;28;20176;-48
2021/04/12 10:15:23;;;;;;;3.72;0.82;;;7.60;62.90;;;;;;5027203;28;20096;-48
2021/04/12 10:18:07;;;;;;;4.13;1.10;;;7.80;63.10;;;;;;5029493;28;20049;-48
2021/04/12 10:20:42;;;;;;;2.67;1.08;;;8.00;64.30;;;;;;5034245;28;20052;-49
2021/04/12 10:23:38;;;;;;;3.08;0.77;;;8.20;59.90;;;;;;5037193;28;20667;-48
2021/04/12 10:26:36;;;;;;;3.50;0.80;;;8.30;59.00;;;;;;5030799;28;20088;-48
2021/04/12 10:29:08;;;;;;;3.95;0.77;;;8.20;58.40;;;;;;5032032;28;20591;-48
2021/04/12 10:31:40;;;;;;;3.88;0.88;;;8.20;57.70;;;;;;5031168;28;20628;-48
2021/04/12 10:34:30;;;;;;;4.60;0.90;;;8.00;58.80;;;;;;5022289;28;20057;-47
2021/04/12 10:37:08;;;;;;;3.33;0.77;;;7.90;60.00;;;;;;5020594;28;20041;-50
2021/04/12 10:39:59;;;;;;;3.55;1.00;;;7.70;59.90;;;;;;5023287;28;20045;-48
2021/04/12 10:42:58;;;;;;;3.13;1.00;;;7.50;60.40;;;;;;5017068;28;20053;-48
2021/04/12 10:45:27;;;;;;;4.43;1.15;;;7.20;59.80;;;;;;5023306;28;20144;-47
2021/04/12 10:48:16;;;;;;;2.63;0.90;;;7.10;61.70;;;;;;5025100;28;20517;-49
2021/04/12 10:50:52;;;;;;;3.33;1.42;;;7.10;64.20;;;;;;5030602;28;20075;-49
2021/04/12 10:53:37;;;;;;;3.25;1.25;;;6.90;68.30;;;;;;5028185;28;20059;-49
2021/04/12 10:56:13;;;;;;;3.55;1.20;;;6.70;67.90;;;;;;5028318;28;20037;-53
2021/04/12 10:59:04;;;;;;;2.80;0.90;;;6.50;67.70;;;;;;5032100;28;20505;-54
2021/04/12 11:01:46;;;;;;;3.60;1.15;;;6.10;68.30;;;;;;5023697;28;20037;-49
2021/04/12 11:04:49;;;;;;;2.47;1.30;;;5.80;70.20;;;;;;5022012;28;20038;-50
2021/04/12 11:07:18;;;;;;;;;;;5.70;72.20;;;;;;5024825;28;20052;-51
2021/04/12 11:09:46;;;;;;;4.78;1.10;;;5.50;74.00;;;;;;5027721;28;20019;-50
2021/04/12 11:12:28;;;;;;;3.42;1.00;;;5.30;74.80;;;;;;5028119;28;20468;-48
2021/04/12 11:15:07;;;;;;;3.50;1.20;;;5.10;76.60;;;;;;5029105;28;20465;-51
2021/04/12 11:17:42;;;;;;;1.95;0.90;;;5.00;77.10;;;;;;5043543;28;20034;-48
2021/04/12 11:20:11;;;;;;;4.82;0.90;;;4.90;77.30;;;;;;5028265;28;20042;-51
2021/04/12 11:22:58;;;;;;;4.13;1.10;;;4.90;77.50;;;;;;5029988;28;20046;-51
2021/04/12 11:25:56;;;;;;;4.07;1.20;;;5.00;78.70;;;;;;5025585;28;20121;-49
2021/04/12 11:28:33;;;;;;;2.88;0.85;;;5.00;79.20;;;;;;5022412;28;20068;-51
2021/04/12 11:31:42;;;;;;;5.43;1.50;;;5.20;78.90;;;;;;5029999;28;20048;-48
2021/04/12 11:34:11;;;;;;;4.43;1.42;;;5.40;80.10;;;;;;5017767;28;20065;-50
2021/04/12 11:37:00;;;;;;;4.22;1.30;;;5.50;79.30;;;;;;5030420;28;20112;-49
2021/04/12 11:39:36;;;;;;;6.85;1.30;;;5.60;79.20;;;;;;5024813;28;20504;-51
2021/04/12 11:42:15;;;;;;;3.28;1.00;;;5.70;78.30;;;;;;5025225;28;20030;-48
2021/04/12 11:44:52;;;;;;;4.72;1.08;;;5.90;78.60;;;;;;5021054;28;20042;-48
2021/04/12 11:47:26;;;;;;;4.40;1.25;;;6.10;77.70;;;;;;5017047;28;20034;-49
2021/04/12 11:50:17;;;;;;;4.70;1.55;;;6.40;77.40;;;;;;5027962;28;20060;-53
2021/04/12 11:53:23;;;;;;;3.50;1.42;;;6.80;76.30;;;;;;5022994;28;20033;-47
2021/04/12 11:56:22;;;;;;;5.63;1.52;;;7.20;75.50;;;;;;5026686;28;20041;-47
2021/04/12 11:58:52;;;;;;;4.50;1.50;;;7.40;73.60;;;;;;5024189;28;20045;-50
2021/04/12 12:01:33;;;;;;;4.78;1.65;;;7.60;73.20;;;;;;5026302;28;20510;-54
2021/04/12 12:04:16;;;;;;;7.75;1.92;;;7.80;72.90;;;;;;5021031;28;20044;-48
2021/04/12 12:07:04;;;;;;;3.47;1.40;;;8.00;73.20;;;;;;5026756;28;20482;-48
2021/04/12 12:09:44;;;;;;;2.55;1.33;;;8.20;72.90;;;;;;5028434;28;20041;-48
2021/04/12 12:12:37;;;;;;;5.53;1.38;;;8.40;71.80;;;;;;5027288;28;20044;-47
2021/04/12 12:15:46;;;;;;;13.07;4.25;;;8.50;70.80;;;;;;5027353;28;20037;-47
2021/04/12 12:18:22;;;;;;;5.45;2.22;;;8.30;67.20;;;;;;5026355;28;20567;-51
2021/04/12 12:20:53;;;;;;;2.47;0.73;;;8.00;67.10;;;;;;5025834;28;20042;-48
2021/04/12 12:23:37;;;;;;;4.30;0.90;;;7.90;68.10;;;;;;5028440;28;20037;-50
2021/04/12 12:26:06;;;;;;;1.13;0.90;;;7.80;67.40;;;;;;5016253;28;20049;-48
2021/04/12 12:28:59;;;;;;;3.83;1.17;;;7.90;68.10;;;;;;5023459;28;20116;-48
2021/04/12 12:31:33;;;;;;;2.55;0.60;;;8.10;65.90;;;;;;5022810;28;21707;-48
2021/04/12 12:34:23;;;;;;;1.63;0.70;;;8.20;63.00;;;;;;5029572;28;20049;-48
2021/04/12 12:37:17;;;;;;;2.78;0.70;;;8.30;63.30;;;;;;5022425;28;20096;-48
2021/04/12 12:39:50;;;;;;;1.40;0.95;;;8.30;64.00;;;;;;5018082;28;20085;-51
2021/04/12 12:42:24;;;;;;;3.30;0.90;;;8.40;62.80;;;;;;5030145;28;20071;-49
2021/04/12 12:44:54;;;;;;;3.40;1.00;;;8.10;63.80;;;;;;5028017;28;20057;-50
2021/04/12 12:47:24;;;;;;;4.57;1.20;;;7.90;62.80;;;;;;5017150;28;20092;-49
2021/04/12 12:49:56;;;;;;;1.85;0.90;;;7.70;64.70;;;;;;5028978;28;20828;-48
2021/04/12 12:52:30;;;;;;;5.55;1.15;;;7.60;65.70;;;;;;5028134;28;20402;-48
2021/04/12 12:54:59;;;;;;;3.35;1.17;;;7.50;67.10;;;;;;5024219;28;20037;-48
2021/04/12 12:57:38;;;;;;;2.30;1.20;;;7.60;68.10;;;;;;5022188;28;20100;-48
2021/04/12 13:00:07;;;;;;;2.38;1.23;;;7.80;66.90;;;;;;5022075;28;20042;-47
2021/04/12 13:02:37;;;;;;;3.67;0.90;;;7.90;64.70;;;;;;5023483;28;20047;-47
2021/04/12 13:05:09;;;;;;;3.17;0.90;;;7.90;60.60;;;;;;5026336;28;20447;-47
2021/04/12 13:07:36;;;;;;;3.10;0.80;;;7.80;62.10;;;;;;5029452;28;20119;-48
2021/04/12 13:10:09;;;;;;;0.65;0.50;;;7.60;62.30;;;;;;5029192;28;20041;-48
2021/04/12 13:12:39;;;;;;;0.80;0.40;;;7.50;61.70;;;;;;5029525;28;20129;-47
2021/04/12 13:15:30;;;;;;;2.25;0.60;;;7.40;62.20;;;;;;5024258;28;20045;-50
2021/04/12 13:18:20;;;;;;;1.88;0.50;;;7.20;62.20;;;;;;5022809;28;20037;-51
2021/04/12 13:21:08;;;;;;;3.55;0.80;;;7.40;64.30;;;;;;5023348;28;20046;-49
2021/04/12 13:23:49;;;;;;;4.30;0.90;;;7.60;64.90;;;;;;5028289;28;20499;-51
2021/04/12 13:26:24;;;;;;;8.93;1.20;;;7.80;65.10;;;;;;5024079;28;20076;-47
2021/04/12 13:28:51;;;;;;;3.42;0.90;;;8.10;64.90;;;;;;5034077;28;20069;-50
2021/04/12 13:31:31;;;;;;;2.85;1.13;;;8.30;65.40;;;;;;5023398;28;20038;-48
2021/04/12 13:34:22;;;;;;;2.35;0.70;;;8.40;64.40;;;;;;5031374;28;20053;-51
2021/04/12 13:36:56;;;;;;;2.25;0.70;;;8.20;60.10;;;;;;5019221;28;20080;-47
2021/04/12 13:39:45;;;;;;;2.78;0.68;;;8.10;58.10;;;;;;5032708;28;20064;-48
2021/04/12 13:42:17;;;;;;;3.60;0.80;;;8.20;58.60;;;;;;5031254;28;20048;-48
2021/04/12 13:44:50;;;;;;;3.70;0.63;;;8.50;57.30;;;;;;5034126;28;20037;-48
2021/04/12 13:47:21;;;;;;;;;;;8.60;57.80;;;;;;5029551;28;20422;-50
2021/04/12 13:50:07;;;;;;;2.03;0.73;;;8.70;58.50;;;;;;5030364;28;20385;-50
2021/04/12 13:52:35;;;;;;;3.03;0.70;;;8.60;58.90;;;;;;5027283;28;20033;-48
2021/04/12 13:55:20;;;;;;;3.03;1.08;;;8.30;57.60;;;;;;5023798;28;20041;-47
2021/04/12 13:58:16;;;;;;;2.03;0.60;;;8.00;61.10;;;;;;5023199;28;20114;-48
2021/04/12 14:00:51;;;;;;;3.78;1.00;;;7.50;62.70;;;;;;5020417;28;20073;-48
2021/04/12 14:03:27;;;;;;;4.93;0.63;;;7.20;64.20;;;;;;5020443;28;20068;-47
2021/04/12 14:06:20;;;;;;;3.05;0.85;;;6.90;65.60;;;;;;5016064;28;20053;-52
2021/04/12 14:09:03;;;;;;;2.20;0.45;;;6.80;66.80;;;;;;5017024;28;20053;-48
2021/04/12 14:11:31;;;;;;;;;;;6.90;69.60;;;;;;5017012;28;20060;-47
2021/04/12 14:14:13;;;;;;;2.03;0.60;;;7.20;70.10;;;;;;5015635;28;19960;-49
2021/04/12 14:16:39;;;;;;;2.03;0.75;;;7.60;68.10;;;;;;5017449;28;20042;-50
2021/04/12 14:19:20;;;;;;;1.27;0.43;;;7.80;65.70;;;;;;5025224;28;20045;-48
2021/04/12 14:21:47;;;;;;;2.35;0.70;;;8.00;65.50;;;;;;5006122;28;20140;-48
2021/04/12 14:24:28;;;;;;;2.33;0.60;;;8.00;64.50;;;;;;5017289;28;20124;-47
2021/04/12 14:27:01;;;;;;;2.05;0.85;;;8.10;64.10;;;;;;5013306;28;20046;-48
2021/04/12 14:29:36;;;;;;;3.97;1.00;;;8.20;65.10;;;;;;5017901;28;20076;-48
2021/04/12 14:32:06;;;;;;;3.15;0.80;;;8.10;64.40;;;;;;5020093;28;20124;-50
2021/04/12 14:34:41;;;;;;;3.50;1.23;;;8.00;64.80;;;;;;5022537;28;20104;-48
2021/04/12 14:37:31;;;;;;;1.85;0.90;;;7.80;65.40;;;;;;5027799;28;20045;-48